sensor_id;sensor_type;location;lat;lon;timestamp;temperature;humidity
21001;DHT22;10658;50.920;12.238;2023-02-28T00:04:09;-1.60;99.90
21001;DHT22;10658;50.920;12.238;2023-02-28T00:08:10;-1.60;99.90
21001;DHT22;10658;50.920;12.238;2023-02-28T00:12:12;-1.60;99.90
21001;DHT22;10658;50.920;12.238;2023-02-28T00:16:17;-1.60;99.90
21001;DHT22;10658;50.920;12.238;2023-02-28T00:20:19;-1.50;99.90
21001;DHT22;10658;50.920;12.238;2023-02-28T00:24:32;-1.40;99.90
21001;DHT22;10658;50.920;12.238;2023-02-28T00:28:33;-1.40;99.90
21001;DHT22;10658;50.920;12.238;2023-02-28T00:32:35;-1.40;99.90
21001;DHT22;10658;50.920;12.238;2023-02-28T00:36:37;-1.40;99.90
21001;DHT22;10658;50.920;12.238;2023-02-28T00:40:39;-1.40;99.90
21001;DHT22;10658;50.920;12.238;2023-02-28T00:44:41;-1.40;99.90
21001;DHT22;10658;50.920;12.238;2023-02-28T00:48:43;-1.30;99.90
21001;DHT22;10658;50.920;12.238;2023-02-28T00:52:47;-1.20;99.90
21001;DHT22;10658;50.920;12.238;2023-02-28T00:56:49;-1.30;99.90
21001;DHT22;10658;50.920;12.238;2023-02-28T01:00:51;-1.40;99.90
21001;DHT22;10658;50.920;12.238;2023-02-28T01:04:54;-1.50;99.90
21001;DHT22;10658;50.920;12.238;2023-02-28T01:08:55;-1.60;99.90
21001;DHT22;10658;50.920;12.238;2023-02-28T01:12:57;-1.60;99.90
21001;DHT22;10658;50.920;12.238;2023-02-28T01:16:58;-1.50;99.90
21001;DHT22;10658;50.920;12.238;2023-02-28T01:21:04;-1.60;99.90
21001;DHT22;10658;50.920;12.238;2023-02-28T01:25:11;-1.60;99.90
21001;DHT22;10658;50.920;12.238;2023-02-28T01:29:12;-1.70;99.90
21001;DHT22;10658;50.920;12.238;2023-02-28T01:33:13;-1.80;99.90
21001;DHT22;10658;50.920;12.238;2023-02-28T01:37:15;-1.70;99.90
21001;DHT22;10658;50.920;12.238;2023-02-28T01:41:24;-1.60;99.90
21001;DHT22;10658;50.920;12.238;2023-02-28T01:45:29;-1.60;99.90
21001;DHT22;10658;50.920;12.238;2023-02-28T01:49:31;-1.50;99.90
21001;DHT22;10658;50.920;12.238;2023-02-28T01:53:38;-1.40;99.90
21001;DHT22;10658;50.920;12.238;2023-02-28T01:57:46;-1.40;99.90
21001;DHT22;10658;50.920;12.238;2023-02-28T02:01:54;-1.50;99.90
21001;DHT22;10658;50.920;12.238;2023-02-28T02:05:55;-1.50;99.90
21001;DHT22;10658;50.920;12.238;2023-02-28T02:10:05;-1.40;99.90
21001;DHT22;10658;50.920;12.238;2023-02-28T02:23:21;-1.50;99.90
21001;DHT22;10658;50.920;12.238;2023-02-28T02:37:11;-1.90;99.90
21001;DHT22;10658;50.920;12.238;2023-02-28T02:45:39;-2.00;99.90
21001;DHT22;10658;50.920;12.238;2023-02-28T02:49:43;-2.10;99.90
21001;DHT22;10658;50.920;12.238;2023-02-28T02:54:02;-2.10;99.90
21001;DHT22;10658;50.920;12.238;2023-02-28T02:58:10;-2.10;99.90
21001;DHT22;10658;50.920;12.238;2023-02-28T03:02:16;-2.00;99.90
21001;DHT22;10658;50.920;12.238;2023-02-28T03:06:17;-1.90;99.90
21001;DHT22;10658;50.920;12.238;2023-02-28T03:10:31;-1.90;99.90
21001;DHT22;10658;50.920;12.238;2023-02-28T03:23:17;-2.00;99.90
21001;DHT22;10658;50.920;12.238;2023-02-28T03:27:26;-2.10;99.90
21001;DHT22;10658;50.920;12.238;2023-02-28T03:31:40;-2.10;99.90
21001;DHT22;10658;50.920;12.238;2023-02-28T03:36:02;-1.90;99.90
21001;DHT22;10658;50.920;12.238;2023-02-28T03:40:11;-1.80;99.90
21001;DHT22;10658;50.920;12.238;2023-02-28T03:44:18;-1.90;99.90
21001;DHT22;10658;50.920;12.238;2023-02-28T03:57:39;-2.10;99.90
21001;DHT22;10658;50.920;12.238;2023-02-28T04:01:43;-2.30;99.90
21001;DHT22;10658;50.920;12.238;2023-02-28T04:05:55;-2.50;99.90
21001;DHT22;10658;50.920;12.238;2023-02-28T04:09:58;-2.60;99.90
21001;DHT22;10658;50.920;12.238;2023-02-28T04:14:00;-2.60;99.90
21001;DHT22;10658;50.920;12.238;2023-02-28T04:18:02;-2.60;99.90
21001;DHT22;10658;50.920;12.238;2023-02-28T04:22:03;-2.80;99.90
21001;DHT22;10658;50.920;12.238;2023-02-28T04:26:04;-2.80;99.90
21001;DHT22;10658;50.920;12.238;2023-02-28T04:30:07;-2.90;99.90
21001;DHT22;10658;50.920;12.238;2023-02-28T04:34:08;-2.90;99.90
21001;DHT22;10658;50.920;12.238;2023-02-28T04:38:10;-3.00;99.90
21001;DHT22;10658;50.920;12.238;2023-02-28T04:42:12;-3.10;99.90
21001;DHT22;10658;50.920;12.238;2023-02-28T04:46:14;-3.20;99.90
21001;DHT22;10658;50.920;12.238;2023-02-28T04:50:16;-3.20;99.90
21001;DHT22;10658;50.920;12.238;2023-02-28T04:54:16;-3.20;99.90
21001;DHT22;10658;50.920;12.238;2023-02-28T04:58:19;-3.20;99.90
21001;DHT22;10658;50.920;12.238;2023-02-28T05:02:23;-3.30;99.90
21001;DHT22;10658;50.920;12.238;2023-02-28T05:06:26;-3.40;99.90
21001;DHT22;10658;50.920;12.238;2023-02-28T05:10:29;-3.50;99.90
21001;DHT22;10658;50.920;12.238;2023-02-28T05:14:30;-3.60;99.90
21001;DHT22;10658;50.920;12.238;2023-02-28T05:18:33;-3.70;99.90
21001;DHT22;10658;50.920;12.238;2023-02-28T05:22:34;-3.90;99.90
21001;DHT22;10658;50.920;12.238;2023-02-28T05:26:37;-3.80;99.90
21001;DHT22;10658;50.920;12.238;2023-02-28T05:30:39;-3.90;99.90
21001;DHT22;10658;50.920;12.238;2023-02-28T05:34:41;-3.90;99.90
21001;DHT22;10658;50.920;12.238;2023-02-28T05:38:45;-3.80;99.90
21001;DHT22;10658;50.920;12.238;2023-02-28T05:42:47;-3.70;99.90
21001;DHT22;10658;50.920;12.238;2023-02-28T05:46:48;-3.70;99.90
21001;DHT22;10658;50.920;12.238;2023-02-28T05:50:49;-3.60;99.90
21001;DHT22;10658;50.920;12.238;2023-02-28T05:54:50;-3.40;99.90
21001;DHT22;10658;50.920;12.238;2023-02-28T05:58:51;-3.20;99.90
21001;DHT22;10658;50.920;12.238;2023-02-28T06:02:53;-3.00;99.90
21001;DHT22;10658;50.920;12.238;2023-02-28T06:06:57;-2.60;99.90
21001;DHT22;10658;50.920;12.238;2023-02-28T06:10:58;-2.40;99.90
21001;DHT22;10658;50.920;12.238;2023-02-28T06:14:59;-2.30;99.90
21001;DHT22;10658;50.920;12.238;2023-02-28T06:19:02;-2.10;99.90
21001;DHT22;10658;50.920;12.238;2023-02-28T06:23:03;-2.10;99.90
21001;DHT22;10658;50.920;12.238;2023-02-28T06:27:04;-2.00;99.90
21001;DHT22;10658;50.920;12.238;2023-02-28T06:31:11;-1.80;99.90
21001;DHT22;10658;50.920;12.238;2023-02-28T06:35:12;-1.70;99.90
21001;DHT22;10658;50.920;12.238;2023-02-28T06:39:14;-1.80;99.90
21001;DHT22;10658;50.920;12.238;2023-02-28T06:43:15;-1.60;99.90
21001;DHT22;10658;50.920;12.238;2023-02-28T06:47:16;-1.60;99.90
21001;DHT22;10658;50.920;12.238;2023-02-28T06:51:20;-1.50;99.90
21001;DHT22;10658;50.920;12.238;2023-02-28T06:55:23;-1.50;99.90
21001;DHT22;10658;50.920;12.238;2023-02-28T06:59:24;-1.40;99.90
21001;DHT22;10658;50.920;12.238;2023-02-28T07:03:25;-1.30;99.90
21001;DHT22;10658;50.920;12.238;2023-02-28T07:07:27;-1.30;99.90
21001;DHT22;10658;50.920;12.238;2023-02-28T07:11:28;-1.30;99.90
21001;DHT22;10658;50.920;12.238;2023-02-28T07:15:30;-1.30;99.90
21001;DHT22;10658;50.920;12.238;2023-02-28T07:19:31;-1.20;99.90
21001;DHT22;10658;50.920;12.238;2023-02-28T07:23:32;-0.90;99.90
21001;DHT22;10658;50.920;12.238;2023-02-28T07:27:33;-0.70;99.90
21001;DHT22;10658;50.920;12.238;2023-02-28T07:31:35;-0.60;99.90
21001;DHT22;10658;50.920;12.238;2023-02-28T07:35:36;-0.30;99.90
21001;DHT22;10658;50.920;12.238;2023-02-28T07:39:38;-0.10;99.90
21001;DHT22;10658;50.920;12.238;2023-02-28T07:43:39;0.10;99.90
21001;DHT22;10658;50.920;12.238;2023-02-28T07:47:41;0.20;99.90
21001;DHT22;10658;50.920;12.238;2023-02-28T07:51:42;0.40;99.90
21001;DHT22;10658;50.920;12.238;2023-02-28T07:55:43;0.40;99.90
21001;DHT22;10658;50.920;12.238;2023-02-28T07:59:46;0.50;99.90
21001;DHT22;10658;50.920;12.238;2023-02-28T08:03:47;0.60;99.90
21001;DHT22;10658;50.920;12.238;2023-02-28T08:07:49;0.60;99.90
21001;DHT22;10658;50.920;12.238;2023-02-28T08:11:50;0.70;99.90
21001;DHT22;10658;50.920;12.238;2023-02-28T08:15:52;0.80;99.90
21001;DHT22;10658;50.920;12.238;2023-02-28T08:19:53;0.80;99.90
21001;DHT22;10658;50.920;12.238;2023-02-28T08:23:54;1.00;99.90
21001;DHT22;10658;50.920;12.238;2023-02-28T08:27:56;1.20;99.90
21001;DHT22;10658;50.920;12.238;2023-02-28T08:31:57;1.30;99.90
21001;DHT22;10658;50.920;12.238;2023-02-28T08:36:00;1.40;99.90
21001;DHT22;10658;50.920;12.238;2023-02-28T08:40:00;1.50;99.90
21001;DHT22;10658;50.920;12.238;2023-02-28T08:44:03;1.60;99.90
21001;DHT22;10658;50.920;12.238;2023-02-28T08:48:05;1.60;99.90
21001;DHT22;10658;50.920;12.238;2023-02-28T08:52:06;1.80;99.90
21001;DHT22;10658;50.920;12.238;2023-02-28T08:56:11;1.80;99.90
21001;DHT22;10658;50.920;12.238;2023-02-28T09:00:15;1.80;99.90
21001;DHT22;10658;50.920;12.238;2023-02-28T09:04:18;1.90;99.90
21001;DHT22;10658;50.920;12.238;2023-02-28T09:08:18;1.90;99.90
21001;DHT22;10658;50.920;12.238;2023-02-28T09:12:21;2.10;99.90
21001;DHT22;10658;50.920;12.238;2023-02-28T09:16:45;2.40;99.90
21001;DHT22;10658;50.920;12.238;2023-02-28T09:20:46;2.30;99.90
21001;DHT22;10658;50.920;12.238;2023-02-28T09:24:47;2.60;99.90
21001;DHT22;10658;50.920;12.238;2023-02-28T09:28:50;3.00;99.90
21001;DHT22;10658;50.920;12.238;2023-02-28T09:32:51;3.10;99.90
21001;DHT22;10658;50.920;12.238;2023-02-28T09:36:56;3.20;99.90
21001;DHT22;10658;50.920;12.238;2023-02-28T09:41:00;3.20;99.90
21001;DHT22;10658;50.920;12.238;2023-02-28T09:45:07;2.80;99.90
21001;DHT22;10658;50.920;12.238;2023-02-28T09:49:20;2.90;99.90
21001;DHT22;10658;50.920;12.238;2023-02-28T09:53:29;3.20;99.90
21001;DHT22;10658;50.920;12.238;2023-02-28T09:57:40;3.30;99.90
21001;DHT22;10658;50.920;12.238;2023-02-28T10:02:32;3.50;99.90
21001;DHT22;10658;50.920;12.238;2023-02-28T10:06:21;3.50;99.90
21001;DHT22;10658;50.920;12.238;2023-02-28T10:10:31;3.10;99.90
21001;DHT22;10658;50.920;12.238;2023-02-28T10:14:34;2.60;99.90
21001;DHT22;10658;50.920;12.238;2023-02-28T10:18:48;2.30;99.90
21001;DHT22;10658;50.920;12.238;2023-02-28T10:27:19;1.80;99.90
21001;DHT22;10658;50.920;12.238;2023-02-28T10:31:21;1.80;99.90
21001;DHT22;10658;50.920;12.238;2023-02-28T10:35:25;1.90;99.90
21001;DHT22;10658;50.920;12.238;2023-02-28T10:39:41;2.20;99.90
21001;DHT22;10658;50.920;12.238;2023-02-28T10:43:43;2.50;99.90
21001;DHT22;10658;50.920;12.238;2023-02-28T10:47:57;2.90;99.90
21001;DHT22;10658;50.920;12.238;2023-02-28T10:52:01;3.10;99.90
21001;DHT22;10658;50.920;12.238;2023-02-28T10:56:22;3.30;99.90
21001;DHT22;10658;50.920;12.238;2023-02-28T11:00:24;3.70;99.90
21001;DHT22;10658;50.920;12.238;2023-02-28T11:08:30;2.60;99.90
21001;DHT22;10658;50.920;12.238;2023-02-28T11:12:38;2.40;99.90
21001;DHT22;10658;50.920;12.238;2023-02-28T11:16:40;2.30;99.90
21001;DHT22;10658;50.920;12.238;2023-02-28T11:20:52;2.40;99.90
21001;DHT22;10658;50.920;12.238;2023-02-28T11:25:06;2.60;99.90
21001;DHT22;10658;50.920;12.238;2023-02-28T11:29:32;2.70;99.90
21001;DHT22;10658;50.920;12.238;2023-02-28T11:33:45;2.60;99.90
21001;DHT22;10658;50.920;12.238;2023-02-28T11:37:49;2.70;99.90
21001;DHT22;10658;50.920;12.238;2023-02-28T11:42:22;2.70;99.90
21001;DHT22;10658;50.920;12.238;2023-02-28T11:46:36;2.70;99.90
21001;DHT22;10658;50.920;12.238;2023-02-28T11:51:01;2.80;99.90
21001;DHT22;10658;50.920;12.238;2023-02-28T12:22:12;3.60;99.90
21001;DHT22;10658;50.920;12.238;2023-02-28T12:26:31;3.50;99.90
21001;DHT22;10658;50.920;12.238;2023-02-28T12:30:37;3.30;99.90
21001;DHT22;10658;50.920;12.238;2023-02-28T12:34:49;3.10;99.90
21001;DHT22;10658;50.920;12.238;2023-02-28T12:39:07;2.80;99.90
21001;DHT22;10658;50.920;12.238;2023-02-28T12:43:13;2.50;99.90
21001;DHT22;10658;50.920;12.238;2023-02-28T12:47:17;2.60;99.90
21001;DHT22;10658;50.920;12.238;2023-02-28T12:51:19;2.50;99.90
21001;DHT22;10658;50.920;12.238;2023-02-28T13:00:00;2.30;99.90
21001;DHT22;10658;50.920;12.238;2023-02-28T13:09:04;2.50;99.90
21001;DHT22;10658;50.920;12.238;2023-02-28T13:13:06;2.70;99.90
21001;DHT22;10658;50.920;12.238;2023-02-28T13:17:20;2.60;99.90
21001;DHT22;10658;50.920;12.238;2023-02-28T13:21:30;2.60;99.90
21001;DHT22;10658;50.920;12.238;2023-02-28T13:31:08;2.50;99.90
21001;DHT22;10658;50.920;12.238;2023-02-28T13:35:47;2.70;99.90
21001;DHT22;10658;50.920;12.238;2023-02-28T13:40:28;2.80;99.90
21001;DHT22;10658;50.920;12.238;2023-02-28T13:45:26;2.80;99.90
21001;DHT22;10658;50.920;12.238;2023-02-28T13:49:35;2.70;99.90
21001;DHT22;10658;50.920;12.238;2023-02-28T14:07:09;2.60;99.90
21001;DHT22;10658;50.920;12.238;2023-02-28T14:11:33;2.60;99.90
21001;DHT22;10658;50.920;12.238;2023-02-28T14:15:49;2.50;99.90
21001;DHT22;10658;50.920;12.238;2023-02-28T14:20:01;2.50;99.90
21001;DHT22;10658;50.920;12.238;2023-02-28T14:33:24;2.40;99.90
21001;DHT22;10658;50.920;12.238;2023-02-28T14:37:42;2.40;99.90
21001;DHT22;10658;50.920;12.238;2023-02-28T14:41:58;2.40;99.90
21001;DHT22;10658;50.920;12.238;2023-02-28T14:46:15;2.40;99.90
21001;DHT22;10658;50.920;12.238;2023-02-28T14:50:31;2.50;99.90
21001;DHT22;10658;50.920;12.238;2023-02-28T14:54:35;2.50;99.90
21001;DHT22;10658;50.920;12.238;2023-02-28T14:58:52;2.40;99.90
21001;DHT22;10658;50.920;12.238;2023-02-28T15:03:22;2.20;99.90
21001;DHT22;10658;50.920;12.238;2023-02-28T15:07:25;2.20;99.90
21001;DHT22;10658;50.920;12.238;2023-02-28T15:11:29;2.30;99.90
21001;DHT22;10658;50.920;12.238;2023-02-28T15:19:49;2.40;99.90
21001;DHT22;10658;50.920;12.238;2023-02-28T15:24:31;2.40;99.90
21001;DHT22;10658;50.920;12.238;2023-02-28T15:29:15;2.30;99.90
21001;DHT22;10658;50.920;12.238;2023-02-28T15:33:47;2.30;99.90
21001;DHT22;10658;50.920;12.238;2023-02-28T15:38:22;2.50;99.90
21001;DHT22;10658;50.920;12.238;2023-02-28T15:42:31;2.70;99.90
21001;DHT22;10658;50.920;12.238;2023-02-28T15:46:37;2.60;99.90
21001;DHT22;10658;50.920;12.238;2023-02-28T15:50:57;2.40;99.90
21001;DHT22;10658;50.920;12.238;2023-02-28T15:54:59;2.10;99.90
21001;DHT22;10658;50.920;12.238;2023-02-28T15:59:20;2.10;99.90
21001;DHT22;10658;50.920;12.238;2023-02-28T16:03:43;2.00;99.90
21001;DHT22;10658;50.920;12.238;2023-02-28T16:07:44;1.80;99.90
21001;DHT22;10658;50.920;12.238;2023-02-28T16:11:55;1.70;99.90
21001;DHT22;10658;50.920;12.238;2023-02-28T16:16:00;1.60;99.90
21001;DHT22;10658;50.920;12.238;2023-02-28T16:20:25;1.60;99.90
21001;DHT22;10658;50.920;12.238;2023-02-28T16:24:37;1.50;99.90
21001;DHT22;10658;50.920;12.238;2023-02-28T16:28:43;1.40;99.90
21001;DHT22;10658;50.920;12.238;2023-02-28T16:32:44;1.30;99.90
21001;DHT22;10658;50.920;12.238;2023-02-28T16:41:19;1.20;99.90
21001;DHT22;10658;50.920;12.238;2023-02-28T16:45:26;1.10;99.90
21001;DHT22;10658;50.920;12.238;2023-02-28T16:49:43;0.90;99.90
21001;DHT22;10658;50.920;12.238;2023-02-28T16:53:44;0.90;99.90
21001;DHT22;10658;50.920;12.238;2023-02-28T16:57:55;0.70;99.90
21001;DHT22;10658;50.920;12.238;2023-02-28T17:02:00;0.60;99.90
21001;DHT22;10658;50.920;12.238;2023-02-28T17:06:01;0.50;99.90
21001;DHT22;10658;50.920;12.238;2023-02-28T17:10:09;0.40;99.90
21001;DHT22;10658;50.920;12.238;2023-02-28T17:14:12;0.40;99.90
21001;DHT22;10658;50.920;12.238;2023-02-28T17:18:16;0.40;99.90
21001;DHT22;10658;50.920;12.238;2023-02-28T17:22:20;0.30;99.90
21001;DHT22;10658;50.920;12.238;2023-02-28T17:26:22;0.20;99.90
21001;DHT22;10658;50.920;12.238;2023-02-28T17:30:26;0.00;99.90
21001;DHT22;10658;50.920;12.238;2023-02-28T17:34:27;0.00;99.90
21001;DHT22;10658;50.920;12.238;2023-02-28T17:38:29;-0.10;99.90
21001;DHT22;10658;50.920;12.238;2023-02-28T17:42:30;-0.20;99.90
21001;DHT22;10658;50.920;12.238;2023-02-28T17:46:32;-0.20;99.90
21001;DHT22;10658;50.920;12.238;2023-02-28T17:50:33;-0.30;99.90
21001;DHT22;10658;50.920;12.238;2023-02-28T17:54:34;-0.30;99.90
21001;DHT22;10658;50.920;12.238;2023-02-28T17:58:35;-0.30;99.90
21001;DHT22;10658;50.920;12.238;2023-02-28T18:02:36;-0.40;99.90
21001;DHT22;10658;50.920;12.238;2023-02-28T18:06:45;-0.40;99.90
21001;DHT22;10658;50.920;12.238;2023-02-28T18:10:50;-0.50;99.90
21001;DHT22;10658;50.920;12.238;2023-02-28T18:14:51;-0.60;99.90
21001;DHT22;10658;50.920;12.238;2023-02-28T18:18:53;-0.70;99.90
21001;DHT22;10658;50.920;12.238;2023-02-28T18:22:59;-0.70;99.90
21001;DHT22;10658;50.920;12.238;2023-02-28T18:27:01;-0.90;99.90
21001;DHT22;10658;50.920;12.238;2023-02-28T18:31:06;-1.00;99.90
21001;DHT22;10658;50.920;12.238;2023-02-28T18:35:10;-1.10;99.90
21001;DHT22;10658;50.920;12.238;2023-02-28T18:39:12;-1.10;99.90
21001;DHT22;10658;50.920;12.238;2023-02-28T18:43:16;-1.20;99.90
21001;DHT22;10658;50.920;12.238;2023-02-28T18:47:29;-1.10;99.90
21001;DHT22;10658;50.920;12.238;2023-02-28T18:51:31;-1.10;99.90
21001;DHT22;10658;50.920;12.238;2023-02-28T18:55:32;-1.20;99.90
21001;DHT22;10658;50.920;12.238;2023-02-28T18:59:58;-1.20;99.90
21001;DHT22;10658;50.920;12.238;2023-02-28T19:04:12;-1.30;99.90
21001;DHT22;10658;50.920;12.238;2023-02-28T19:08:14;-1.40;99.90
21001;DHT22;10658;50.920;12.238;2023-02-28T19:12:15;-1.40;99.90
21001;DHT22;10658;50.920;12.238;2023-02-28T19:16:21;-1.40;99.90
21001;DHT22;10658;50.920;12.238;2023-02-28T19:20:25;-1.60;99.90
21001;DHT22;10658;50.920;12.238;2023-02-28T19:24:28;-1.70;99.90
21001;DHT22;10658;50.920;12.238;2023-02-28T19:28:30;-1.80;99.90
21001;DHT22;10658;50.920;12.238;2023-02-28T19:32:31;-1.90;99.90
21001;DHT22;10658;50.920;12.238;2023-02-28T19:36:32;-1.90;99.90
21001;DHT22;10658;50.920;12.238;2023-02-28T19:40:36;-1.90;99.90
21001;DHT22;10658;50.920;12.238;2023-02-28T19:44:37;-1.90;99.90
21001;DHT22;10658;50.920;12.238;2023-02-28T19:48:39;-2.00;99.90
21001;DHT22;10658;50.920;12.238;2023-02-28T19:52:42;-2.10;99.90
21001;DHT22;10658;50.920;12.238;2023-02-28T19:56:44;-2.10;99.90
21001;DHT22;10658;50.920;12.238;2023-02-28T20:00:46;-2.20;99.90
21001;DHT22;10658;50.920;12.238;2023-02-28T20:04:48;-2.20;99.90
21001;DHT22;10658;50.920;12.238;2023-02-28T20:08:52;-2.30;99.90
21001;DHT22;10658;50.920;12.238;2023-02-28T20:12:59;-2.40;99.90
21001;DHT22;10658;50.920;12.238;2023-02-28T20:17:01;-2.50;99.90
21001;DHT22;10658;50.920;12.238;2023-02-28T20:21:03;-2.50;99.90
21001;DHT22;10658;50.920;12.238;2023-02-28T20:25:05;-2.50;99.90
21001;DHT22;10658;50.920;12.238;2023-02-28T20:29:08;-2.60;99.90
21001;DHT22;10658;50.920;12.238;2023-02-28T20:33:10;-2.60;99.90
21001;DHT22;10658;50.920;12.238;2023-02-28T20:37:11;-2.60;99.90
21001;DHT22;10658;50.920;12.238;2023-02-28T20:41:12;-2.60;99.90
21001;DHT22;10658;50.920;12.238;2023-02-28T20:45:14;-2.50;99.90
21001;DHT22;10658;50.920;12.238;2023-02-28T20:49:16;-2.40;99.90
21001;DHT22;10658;50.920;12.238;2023-02-28T20:53:17;-2.40;99.90
21001;DHT22;10658;50.920;12.238;2023-02-28T20:57:19;-2.50;99.90
21001;DHT22;10658;50.920;12.238;2023-02-28T21:01:24;-2.50;99.90
21001;DHT22;10658;50.920;12.238;2023-02-28T21:05:26;-2.60;99.90
21001;DHT22;10658;50.920;12.238;2023-02-28T21:09:27;-2.60;99.90
21001;DHT22;10658;50.920;12.238;2023-02-28T21:13:32;-2.60;99.90
21001;DHT22;10658;50.920;12.238;2023-02-28T21:17:33;-2.70;99.90
21001;DHT22;10658;50.920;12.238;2023-02-28T21:21:41;-2.80;99.90
21001;DHT22;10658;50.920;12.238;2023-02-28T21:25:44;-2.80;99.90
21001;DHT22;10658;50.920;12.238;2023-02-28T21:29:47;-2.90;99.90
21001;DHT22;10658;50.920;12.238;2023-02-28T21:33:48;-2.90;99.90
21001;DHT22;10658;50.920;12.238;2023-02-28T21:37:49;-3.00;99.90
21001;DHT22;10658;50.920;12.238;2023-02-28T21:41:52;-2.90;99.90
21001;DHT22;10658;50.920;12.238;2023-02-28T21:45:53;-2.90;99.90
21001;DHT22;10658;50.920;12.238;2023-02-28T21:49:54;-2.90;99.90
21001;DHT22;10658;50.920;12.238;2023-02-28T21:54:00;-2.90;99.90
21001;DHT22;10658;50.920;12.238;2023-02-28T21:58:02;-2.90;99.90
21001;DHT22;10658;50.920;12.238;2023-02-28T22:02:03;-2.90;99.90
21001;DHT22;10658;50.920;12.238;2023-02-28T22:06:20;-2.90;99.90
21001;DHT22;10658;50.920;12.238;2023-02-28T22:10:22;-3.00;99.90
21001;DHT22;10658;50.920;12.238;2023-02-28T22:14:25;-3.20;99.90
21001;DHT22;10658;50.920;12.238;2023-02-28T22:18:26;-3.20;99.90
21001;DHT22;10658;50.920;12.238;2023-02-28T22:22:36;-3.30;99.90
21001;DHT22;10658;50.920;12.238;2023-02-28T22:26:37;-3.20;99.90
21001;DHT22;10658;50.920;12.238;2023-02-28T22:30:39;-3.30;99.90
21001;DHT22;10658;50.920;12.238;2023-02-28T22:34:40;-3.40;99.90
21001;DHT22;10658;50.920;12.238;2023-02-28T22:38:48;-3.50;99.90
21001;DHT22;10658;50.920;12.238;2023-02-28T22:42:50;-3.50;99.90
21001;DHT22;10658;50.920;12.238;2023-02-28T22:46:53;-3.40;99.90
21001;DHT22;10658;50.920;12.238;2023-02-28T22:51:11;-3.50;99.90
21001;DHT22;10658;50.920;12.238;2023-02-28T22:55:15;-3.60;99.90
21001;DHT22;10658;50.920;12.238;2023-02-28T22:59:16;-3.60;99.90
21001;DHT22;10658;50.920;12.238;2023-02-28T23:03:18;-3.50;99.90
21001;DHT22;10658;50.920;12.238;2023-02-28T23:07:22;-3.60;99.90
21001;DHT22;10658;50.920;12.238;2023-02-28T23:11:30;-3.70;99.90
21001;DHT22;10658;50.920;12.238;2023-02-28T23:15:32;-3.70;99.90
21001;DHT22;10658;50.920;12.238;2023-02-28T23:19:33;-3.80;99.90
21001;DHT22;10658;50.920;12.238;2023-02-28T23:23:38;-3.90;99.90
21001;DHT22;10658;50.920;12.238;2023-02-28T23:27:39;-3.90;99.90
21001;DHT22;10658;50.920;12.238;2023-02-28T23:31:41;-3.90;99.90
21001;DHT22;10658;50.920;12.238;2023-02-28T23:35:43;-3.90;99.90
21001;DHT22;10658;50.920;12.238;2023-02-28T23:39:45;-3.90;99.90
21001;DHT22;10658;50.920;12.238;2023-02-28T23:43:47;-3.90;99.90
21001;DHT22;10658;50.920;12.238;2023-02-28T23:47:48;-3.90;99.90
21001;DHT22;10658;50.920;12.238;2023-02-28T23:51:50;-3.90;99.90
21001;DHT22;10658;50.920;12.238;2023-02-28T23:55:54;-3.90;99.90
21001;DHT22;10658;50.920;12.238;2023-02-28T23:59:55;-3.90;99.90
